Time;durP1;ratioP1;P1;durP2;ratioP2;P2;SDS_P1;SDS_P2;PMS_P1;PMS_P2;Temp;Humidity;BMP_temperature;BMP_pressure;BME280_temperature;BME280_humidity;BME280_pressure;Samples;Min_cycle;Max_cycle;Signal;HPM_P1;HPM_P2
2022/06/16 00:00:26;;;;;;;7.45;6.70;;;18.90;95.50;;;;;;2047971;29;20035;-70
2022/06/16 00:01:26;;;;;;;10.20;6.82;;;18.90;95.60;;;;;;2048189;29;20055;-70
2022/06/16 00:02:27;;;;;;;7.68;6.80;;;18.90;95.90;;;;;;2048073;28;20066;-70
2022/06/16 00:03:28;;;;;;;10.13;7.10;;;18.90;96.10;;;;;;2047956;29;20032;-71
2022/06/16 00:04:28;;;;;;;7.50;6.70;;;18.80;96.30;;;;;;2047985;29;20020;-70
2022/06/16 00:05:31;;;;;;;7.93;7.03;;;18.80;96.50;;;;;;2048000;29;20027;-69
2022/06/16 00:06:32;;;;;;;7.82;7.00;;;18.80;96.70;;;;;;2048007;29;20043;-71
2022/06/16 00:07:32;;;;;;;7.40;6.70;;;18.80;96.90;;;;;;2047698;29;20019;-71
2022/06/16 00:08:33;;;;;;;8.43;7.03;;;18.80;97.10;;;;;;2047644;29;20047;-68
2022/06/16 00:09:34;;;;;;;7.22;6.53;;;18.70;97.30;;;;;;2047955;28;20118;-69
2022/06/16 00:10:35;;;;;;;10.27;7.35;;;18.70;97.50;;;;;;2047899;28;20027;-68
2022/06/16 00:11:36;;;;;;;7.47;6.78;;;18.70;97.70;;;;;;2047884;29;20051;-68
2022/06/16 00:12:37;;;;;;;7.78;7.07;;;18.70;98.00;;;;;;2047839;29;20475;-70
2022/06/16 00:13:39;;;;;;;7.72;6.93;;;18.70;98.20;;;;;;2047829;29;20122;-68
2022/06/16 00:14:40;;;;;;;7.85;6.88;;;18.70;98.40;;;;;;2047820;28;20023;-68
2022/06/16 00:15:41;;;;;;;8.00;7.18;;;18.70;98.60;;;;;;2047783;28;20111;-70
2022/06/16 00:16:41;;;;;;;7.55;6.85;;;18.70;98.80;;;;;;2047866;28;20713;-69
2022/06/16 00:17:42;;;;;;;7.10;6.40;;;18.60;98.90;;;;;;2031612;29;20028;-68
2022/06/16 00:18:44;;;;;;;8.00;7.20;;;18.60;99.00;;;;;;2031491;29;20035;-67
2022/06/16 00:19:45;;;;;;;8.15;6.78;;;18.60;99.10;;;;;;2047920;28;20028;-68
2022/06/16 00:20:45;;;;;;;7.43;6.75;;;18.60;99.20;;;;;;2047729;28;20074;-68
2022/06/16 00:21:46;;;;;;;8.15;7.07;;;18.60;99.30;;;;;;2031339;29;20091;-68
2022/06/16 00:22:47;;;;;;;7.85;7.05;;;18.60;99.40;;;;;;2031555;29;20095;-68
2022/06/16 00:23:47;;;;;;;7.65;6.93;;;18.60;99.50;;;;;;2047853;29;20060;-69
2022/06/16 00:24:48;;;;;;;7.68;6.97;;;18.60;99.70;;;;;;2039361;29;20126;-68
2022/06/16 00:25:49;;;;;;;7.53;6.82;;;18.60;99.70;;;;;;2039190;29;20051;-68
2022/06/16 00:26:50;;;;;;;7.78;7.07;;;18.60;99.90;;;;;;2047840;28;20027;-68
2022/06/16 00:27:50;;;;;;;7.65;6.85;;;18.60;99.90;;;;;;2047859;28;20368;-68
2022/06/16 00:28:52;;;;;;;8.25;7.15;;;18.50;99.90;;;;;;2039034;29;20031;-68
2022/06/16 00:29:53;;;;;;;7.90;6.97;;;18.50;99.90;;;;;;2039433;29;20027;-69
2022/06/16 00:31:04;;;;;;;8.10;6.93;;;18.50;99.90;;;;;;2047886;29;20059;-68
2022/06/16 00:32:05;;;;;;;7.50;6.80;;;18.50;99.90;;;;;;2047787;28;20516;-68
2022/06/16 00:33:07;;;;;;;7.57;6.85;;;18.50;99.90;;;;;;2047651;29;20539;-69
2022/06/16 00:34:07;;;;;;;7.38;6.68;;;18.40;99.90;;;;;;2047785;29;20031;-68
2022/06/16 00:35:10;;;;;;;7.38;6.68;;;18.40;99.90;;;;;;2047685;28;20106;-69
2022/06/16 00:36:11;;;;;;;9.73;6.97;;;18.30;99.90;;;;;;2039250;29;20080;-71
2022/06/16 00:37:12;;;;;;;8.90;7.00;;;18.30;99.90;;;;;;2038997;29;20032;-69
2022/06/16 00:38:13;;;;;;;8.23;6.80;;;18.30;99.90;;;;;;2039314;29;20063;-67
2022/06/16 00:39:14;;;;;;;7.57;6.60;;;18.30;99.90;;;;;;2038893;29;20036;-68
2022/06/16 00:40:14;;;;;;;7.18;6.47;;;18.20;99.90;;;;;;2031016;29;20047;-68
2022/06/16 00:41:15;;;;;;;7.15;6.53;;;18.20;99.90;;;;;;2039293;29;20055;-68
2022/06/16 00:42:22;;;;;;;7.60;6.70;;;18.20;99.90;;;;;;2047724;28;20042;-67
2022/06/16 00:43:24;;;;;;;7.28;6.57;;;18.20;99.90;;;;;;2039168;29;20027;-69
2022/06/16 00:44:30;;;;;;;8.88;6.47;;;18.20;99.90;;;;;;2039264;29;20170;-67
2022/06/16 00:45:53;;;;;;;7.82;6.60;;;18.10;99.90;;;;;;2047685;29;20777;-68
2022/06/16 00:46:55;;;;;;;7.45;6.47;;;18.10;99.90;;;;;;2047779;28;20482;-67
2022/06/16 00:47:55;;;;;;;7.13;6.43;;;18.10;99.90;;;;;;2047786;28;20031;-67
2022/06/16 00:49:04;;;;;;;8.20;6.30;;;18.10;99.90;;;;;;2047389;28;20150;-67
2022/06/16 00:50:06;;;;;;;7.55;6.85;;;18.00;99.90;;;;;;2047582;29;20020;-67
2022/06/16 00:51:14;;;;;;;7.68;6.80;;;18.00;99.90;;;;;;2047640;29;20624;-68
2022/06/16 00:52:21;;;;;;;9.25;7.07;;;18.00;99.90;;;;;;2039065;29;20028;-67
2022/06/16 00:53:23;;;;;;;7.40;6.70;;;18.00;99.90;;;;;;2039157;29;20766;-68
2022/06/16 00:54:32;;;;;;;7.97;7.13;;;18.00;99.90;;;;;;2039299;29;20039;-67
2022/06/16 00:55:34;;;;;;;7.72;6.93;;;17.90;99.90;;;;;;2047572;28;20061;-67
2022/06/16 00:56:35;;;;;;;10.35;7.85;;;17.90;99.90;;;;;;2039056;29;20490;-69
2022/06/16 00:57:41;;;;;;;9.27;7.22;;;17.90;99.90;;;;;;2039156;29;20442;-68
2022/06/16 00:58:45;;;;;;;9.40;7.60;;;17.90;99.90;;;;;;2047254;29;20067;-68
2022/06/16 00:59:46;;;;;;;8.45;7.07;;;17.90;99.90;;;;;;2047424;29;20025;-68
2022/06/16 01:00:48;;;;;;;8.60;7.75;;;17.90;99.90;;;;;;2047516;29;20505;-69
2022/06/16 01:01:49;;;;;;;8.52;7.63;;;17.90;99.90;;;;;;2047447;28;20035;-69
2022/06/16 01:02:50;;;;;;;7.78;6.97;;;17.80;99.90;;;;;;2047567;29;20019;-68
2022/06/16 01:05:11;;;;;;;8.87;7.93;;;17.80;99.90;;;;;;2047639;29;20075;-68
2022/06/16 01:06:19;;;;;;;8.75;7.63;;;17.80;99.90;;;;;;2038952;29;20035;-68
2022/06/16 01:07:49;;;;;;;9.25;7.85;;;17.80;99.90;;;;;;2032109;29;20479;-68
2022/06/16 01:09:03;;;;;;;10.90;7.88;;;17.80;99.90;;;;;;2030681;29;20118;-68
2022/06/16 01:10:06;;;;;;;8.75;7.63;;;17.80;99.90;;;;;;2038713;29;20039;-68
2022/06/16 01:13:41;;;;;;;8.45;7.50;;;17.70;99.90;;;;;;2038811;29;20027;-68
2022/06/16 01:14:10;;;;;;;7.90;7.20;;;17.70;99.90;;;;;;2047369;29;20383;-68
2022/06/16 01:15:37;;;;;;;8.52;7.72;;;17.70;99.90;;;;;;2039235;29;20114;-67
2022/06/16 01:16:46;;;;;;;8.30;7.50;;;17.70;99.90;;;;;;2042965;28;20469;-67
2022/06/16 01:18:05;;;;;;;8.60;7.70;;;17.60;99.90;;;;;;2047461;29;20027;-66
2022/06/16 01:19:45;;;;;;;8.23;7.32;;;17.60;99.90;;;;;;2038597;29;20036;-66
2022/06/16 01:21:23;;;;;;;9.43;7.60;;;17.60;99.90;;;;;;2026863;29;20060;-67
2022/06/16 01:22:54;;;;;;;8.40;7.60;;;17.60;99.90;;;;;;2047392;28;20636;-67
2022/06/16 01:24:31;;;;;;;8.40;7.35;;;17.60;99.90;;;;;;2038757;29;20099;-68
2022/06/16 01:26:10;;;;;;;8.68;7.78;;;17.60;99.90;;;;;;2035644;29;20028;-68
2022/06/16 01:27:35;;;;;;;9.27;7.68;;;17.60;99.90;;;;;;2038744;29;20031;-68
2022/06/16 01:28:47;;;;;;;9.02;7.88;;;17.60;99.90;;;;;;2030668;29;20036;-67
2022/06/16 01:30:14;;;;;;;8.68;7.88;;;17.60;99.90;;;;;;2032101;29;20024;-68
2022/06/16 01:31:21;;;;;;;8.75;7.85;;;17.60;99.90;;;;;;2038723;29;20026;-67
2022/06/16 01:32:52;;;;;;;8.50;7.60;;;17.60;99.90;;;;;;2039687;29;20533;-68
2022/06/16 01:34:12;;;;;;;8.18;7.47;;;17.60;99.90;;;;;;2038759;29;20043;-67
2022/06/16 01:35:43;;;;;;;8.30;7.50;;;17.60;99.90;;;;;;2038661;29;20043;-67
2022/06/16 01:37:00;;;;;;;8.70;7.82;;;17.60;99.90;;;;;;2034407;29;20052;-67
2022/06/16 01:38:18;;;;;;;9.25;7.95;;;17.60;99.90;;;;;;2038717;29;20040;-67
2022/06/16 01:39:45;;;;;;;8.50;7.57;;;17.60;99.90;;;;;;2040665;29;20395;-67
2022/06/16 01:40:53;;;;;;;8.60;7.80;;;17.60;99.90;;;;;;2038376;29;20044;-68
2022/06/16 01:42:03;;;;;;;8.38;7.45;;;17.60;99.90;;;;;;2039644;29;20138;-67
2022/06/16 01:43:28;;;;;;;8.60;7.70;;;17.60;99.90;;;;;;2038499;29;20147;-67
2022/06/16 01:44:45;;;;;;;9.35;7.72;;;17.60;99.90;;;;;;2041284;29;20454;-68
2022/06/16 01:45:55;;;;;;;9.48;8.00;;;17.60;99.90;;;;;;2038576;29;20027;-67
2022/06/16 01:47:04;;;;;;;10.95;8.27;;;17.60;99.90;;;;;;2038572;29;20038;-67
2022/06/16 01:48:08;;;;;;;9.45;8.02;;;17.60;99.90;;;;;;2038660;29;20040;-69
2022/06/16 01:49:20;;;;;;;10.18;8.05;;;17.60;99.90;;;;;;2030756;29;20068;-67
2022/06/16 01:50:33;;;;;;;8.73;7.93;;;17.60;99.90;;;;;;2038659;29;20164;-68
2022/06/16 01:51:54;;;;;;;8.77;7.80;;;17.60;99.90;;;;;;2040161;29;20056;-67
2022/06/16 01:52:57;;;;;;;;;;;17.60;99.90;;;;;;2039038;29;20541;-69
2022/06/16 01:54:10;;;;;;;8.48;7.68;;;17.60;99.90;;;;;;2039019;29;19915;-68
2022/06/16 01:55:18;;;;;;;9.38;7.80;;;17.50;99.90;;;;;;2038750;29;20074;-69
2022/06/16 01:56:28;;;;;;;9.00;8.10;;;17.50;99.90;;;;;;2038688;29;20032;-68
2022/06/16 01:57:38;;;;;;;8.45;7.60;;;17.50;99.90;;;;;;2038625;29;20115;-69
2022/06/16 01:58:43;;;;;;;8.75;7.95;;;17.50;99.90;;;;;;2031770;29;20048;-68
2022/06/16 01:59:54;;;;;;;9.20;8.25;;;17.50;99.90;;;;;;2038853;29;20036;-68
2022/06/16 02:00:59;;;;;;;8.63;7.72;;;17.50;99.90;;;;;;2038551;29;20085;-68
2022/06/16 02:02:06;;;;;;;9.25;8.35;;;17.50;99.90;;;;;;2031390;29;20039;-69
2022/06/16 02:03:24;;;;;;;8.80;8.00;;;17.40;99.90;;;;;;2038490;29;20028;-69
2022/06/16 02:04:30;;;;;;;9.38;8.48;;;17.40;99.90;;;;;;2040712;29;20024;-68
2022/06/16 02:05:47;;;;;;;9.30;8.35;;;17.40;99.90;;;;;;2046545;28;20019;-69
2022/06/16 02:06:53;;;;;;;9.95;8.10;;;17.50;99.90;;;;;;2047135;28;20016;-69
2022/06/16 02:08:03;;;;;;;8.85;7.95;;;17.40;99.90;;;;;;2038670;29;20050;-68
2022/06/16 02:09:11;;;;;;;9.40;8.50;;;17.40;99.90;;;;;;2039629;29;20038;-69
2022/06/16 02:10:17;;;;;;;8.65;7.75;;;17.40;99.90;;;;;;2038482;29;20504;-69
2022/06/16 02:11:28;;;;;;;9.20;8.30;;;17.40;99.90;;;;;;2038452;29;20106;-69
2022/06/16 02:14:28;;;;;;;9.95;8.80;;;17.40;99.90;;;;;;2038498;29;20111;-68
2022/06/16 02:15:52;;;;;;;9.48;8.50;;;17.30;99.90;;;;;;2035317;29;20027;-68
2022/06/16 02:16:54;;;;;;;8.65;7.75;;;17.30;99.90;;;;;;2040990;29;20039;-68
2022/06/16 02:17:58;;;;;;;9.85;8.40;;;17.30;99.90;;;;;;2038787;29;20561;-67
2022/06/16 02:19:04;;;;;;;9.80;8.25;;;17.20;99.90;;;;;;2031187;29;20047;-68
2022/06/16 02:20:06;;;;;;;9.75;8.75;;;17.20;99.90;;;;;;2039426;29;20094;-67
2022/06/16 02:21:29;;;;;;;9.88;8.40;;;17.20;99.90;;;;;;2047400;29;20031;-66
2022/06/16 02:22:31;;;;;;;11.23;8.73;;;17.20;99.90;;;;;;2047447;29;20031;-67
2022/06/16 02:23:32;;;;;;;9.45;8.55;;;17.20;99.90;;;;;;2038751;29;20027;-70
2022/06/16 02:24:33;;;;;;;10.55;8.13;;;17.10;99.90;;;;;;2038821;29;20036;-69
2022/06/16 02:25:34;;;;;;;8.85;7.95;;;17.10;99.90;;;;;;2038663;29;20495;-68
2022/06/16 02:26:36;;;;;;;9.98;8.48;;;17.10;99.90;;;;;;2038756;29;20024;-68
2022/06/16 02:27:37;;;;;;;8.95;8.05;;;17.00;99.90;;;;;;2038762;28;20028;-68
2022/06/16 02:28:42;;;;;;;10.07;8.35;;;17.00;99.90;;;;;;2038389;29;20027;-68
2022/06/16 02:29:43;;;;;;;9.35;8.30;;;17.00;99.90;;;;;;2038638;29;20565;-68
2022/06/16 02:30:58;;;;;;;9.57;8.57;;;17.00;99.90;;;;;;2038717;29;20122;-67
2022/06/16 02:32:08;;;;;;;9.05;8.25;;;17.00;99.90;;;;;;2046785;28;20027;-68
2022/06/16 02:33:22;;;;;;;9.85;8.38;;;16.90;99.90;;;;;;2047247;29;20019;-67
2022/06/16 02:34:47;;;;;;;9.77;8.18;;;17.00;99.90;;;;;;2038520;29;20039;-68
2022/06/16 02:36:16;;;;;;;9.30;8.40;;;17.00;99.90;;;;;;2038222;29;20139;-67
2022/06/16 02:37:41;;;;;;;9.82;8.75;;;16.90;99.90;;;;;;2042681;29;20485;-67
2022/06/16 02:38:50;;;;;;;9.40;8.50;;;16.90;99.90;;;;;;2030382;29;20028;-67
2022/06/16 02:40:19;;;;;;;9.23;8.43;;;16.90;99.90;;;;;;2031825;29;20060;-68
2022/06/16 02:41:35;;;;;;;9.57;8.57;;;16.90;99.90;;;;;;2032549;29;20035;-67
2022/06/16 02:42:48;;;;;;;9.48;8.32;;;16.80;99.90;;;;;;2047018;28;20049;-66
2022/06/16 02:44:04;;;;;;;9.65;8.40;;;16.80;99.90;;;;;;2047016;28;20040;-69
2022/06/16 02:45:35;;;;;;;9.35;8.48;;;16.80;99.90;;;;;;2046988;29;20035;-69
2022/06/16 02:47:01;;;;;;;9.27;8.38;;;16.80;99.90;;;;;;2047154;29;20065;-67
2022/06/16 02:48:14;;;;;;;8.93;8.07;;;16.80;99.90;;;;;;2038430;29;20047;-67
2022/06/16 02:49:46;;;;;;;9.40;8.45;;;16.80;99.90;;;;;;2038156;29;20075;-68
2022/06/16 02:50:55;;;;;;;9.38;8.55;;;16.80;99.90;;;;;;2034463;29;20035;-66
2022/06/16 02:52:17;;;;;;;9.43;8.52;;;16.80;99.90;;;;;;2031530;29;20076;-67
2022/06/16 02:55:19;;;;;;;10.20;8.68;;;16.90;99.90;;;;;;2016771;29;20047;-67
2022/06/16 02:56:45;;;;;;;9.65;8.75;;;16.90;99.90;;;;;;2035243;29;20101;-67
2022/06/16 02:57:55;;;;;;;9.88;8.88;;;16.90;99.90;;;;;;2039860;29;20032;-67
2022/06/16 02:59:21;;;;;;;9.77;8.77;;;16.90;99.90;;;;;;2042331;29;20027;-69
2022/06/16 03:00:30;;;;;;;9.00;8.10;;;16.90;99.90;;;;;;2039650;29;20693;-68
2022/06/16 03:01:33;;;;;;;11.77;8.75;;;16.90;99.90;;;;;;2039934;29;20032;-69
2022/06/16 03:02:38;;;;;;;8.98;8.07;;;17.00;99.90;;;;;;2031934;29;20476;-67
2022/06/16 03:03:39;;;;;;;8.70;7.90;;;17.00;99.90;;;;;;2025443;29;20100;-69
2022/06/16 03:04:47;;;;;;;9.30;8.40;;;17.00;99.90;;;;;;2040406;29;20187;-68
2022/06/16 03:05:53;;;;;;;9.50;7.65;;;17.00;99.90;;;;;;2040092;29;20084;-67
2022/06/16 03:06:55;;;;;;;9.80;7.47;;;17.00;99.90;;;;;;2040009;29;20653;-69
2022/06/16 03:07:55;;;;;;;8.82;7.93;;;17.10;99.90;;;;;;2032315;29;20143;-67
2022/06/16 03:08:59;;;;;;;8.52;7.65;;;17.10;99.90;;;;;;2031912;29;20367;-70
2022/06/16 03:10:03;;;;;;;9.50;8.63;;;17.10;99.90;;;;;;2039435;29;20090;-71
2022/06/16 03:11:04;;;;;;;9.25;8.32;;;17.10;99.90;;;;;;2039841;29;20200;-67
2022/06/16 03:12:08;;;;;;;9.23;8.32;;;17.10;99.90;;;;;;2032055;29;20114;-67
2022/06/16 03:13:11;;;;;;;9.55;7.93;;;17.10;99.90;;;;;;2039557;29;20538;-68
2022/06/16 03:14:12;;;;;;;8.88;8.00;;;17.10;99.90;;;;;;2039730;29;20036;-69
2022/06/16 03:15:19;;;;;;;8.65;7.75;;;17.10;99.90;;;;;;2039624;29;20038;-68
2022/06/16 03:16:21;;;;;;;8.93;8.05;;;17.20;99.90;;;;;;2039520;29;20043;-68
2022/06/16 03:17:22;;;;;;;9.07;8.07;;;17.20;99.90;;;;;;2031552;29;20028;-68
2022/06/16 03:18:24;;;;;;;8.45;7.68;;;17.20;99.90;;;;;;2023896;29;20767;-67
2022/06/16 03:19:25;;;;;;;8.50;7.70;;;17.20;99.90;;;;;;2031908;29;20432;-68
2022/06/16 03:20:26;;;;;;;8.85;7.97;;;17.20;99.90;;;;;;2039434;29;20034;-69
2022/06/16 03:21:26;;;;;;;9.60;8.60;;;17.30;99.90;;;;;;2039672;29;20035;-68
2022/06/16 03:22:27;;;;;;;9.10;8.23;;;17.30;99.90;;;;;;2039578;29;20039;-67
2022/06/16 03:23:28;;;;;;;8.48;7.65;;;17.30;99.90;;;;;;2039812;29;20086;-68
2022/06/16 03:24:29;;;;;;;8.68;7.78;;;17.30;99.90;;;;;;2039913;29;20848;-67
2022/06/16 03:25:30;;;;;;;8.63;7.82;;;17.30;99.90;;;;;;2031871;29;20026;-68
2022/06/16 03:26:32;;;;;;;9.20;7.78;;;17.30;99.90;;;;;;2031725;29;20020;-67
2022/06/16 03:27:34;;;;;;;11.95;8.10;;;17.30;99.90;;;;;;2032387;29;20028;-68
2022/06/16 03:28:36;;;;;;;12.30;9.00;;;17.30;99.90;;;;;;2039867;29;20488;-67
2022/06/16 03:29:43;;;;;;;10.52;7.90;;;17.30;99.90;;;;;;2039762;29;20031;-68
2022/06/16 03:30:46;;;;;;;9.23;8.30;;;17.30;99.90;;;;;;2032090;29;20024;-68
2022/06/16 03:31:50;;;;;;;10.85;8.18;;;17.30;99.90;;;;;;2040306;29;20042;-69
2022/06/16 03:32:56;;;;;;;8.93;8.02;;;17.30;99.90;;;;;;2039762;29;20027;-68
2022/06/16 03:33:57;;;;;;;8.90;8.00;;;17.30;99.90;;;;;;2031836;29;20365;-68
2022/06/16 03:35:03;;;;;;;8.93;8.00;;;17.40;99.90;;;;;;2032518;29;20040;-69
2022/06/16 03:36:04;;;;;;;9.02;8.15;;;17.40;99.90;;;;;;2032050;29;20079;-68
2022/06/16 03:37:08;;;;;;;8.60;7.70;;;17.40;99.90;;;;;;2040049;29;20032;-68
2022/06/16 03:39:39;;;;;;;8.85;7.68;;;17.50;99.90;;;;;;2034349;29;20034;-69
2022/06/16 03:40:40;;;;;;;9.15;7.85;;;17.50;99.90;;;;;;2039176;29;20032;-68
2022/06/16 03:41:41;;;;;;;9.85;7.68;;;17.50;99.90;;;;;;2039804;29;20407;-68
2022/06/16 03:42:42;;;;;;;10.13;8.27;;;17.50;99.90;;;;;;2039774;29;20043;-68
2022/06/16 03:43:43;;;;;;;9.13;8.20;;;17.50;99.90;;;;;;2039552;29;20055;-67
2022/06/16 03:44:48;;;;;;;9.48;7.95;;;17.50;99.90;;;;;;2039695;29;20028;-68
2022/06/16 03:45:51;;;;;;;9.43;7.35;;;17.50;99.90;;;;;;2031671;29;20028;-69
2022/06/16 03:46:52;;;;;;;8.85;7.95;;;17.50;99.90;;;;;;2024466;29;20419;-68
2022/06/16 03:48:01;;;;;;;9.90;8.05;;;17.50;99.90;;;;;;2040559;29;20047;-68
2022/06/16 03:49:03;;;;;;;10.73;8.02;;;17.50;99.90;;;;;;2039223;29;20059;-67
2022/06/16 03:50:25;;;;;;;9.13;7.93;;;17.50;99.90;;;;;;2034360;29;20030;-68
2022/06/16 03:51:28;;;;;;;8.10;7.30;;;17.50;99.90;;;;;;2031728;29;20035;-67
2022/06/16 03:52:29;;;;;;;10.25;8.23;;;17.50;99.90;;;;;;2039514;29;20451;-68
2022/06/16 03:53:32;;;;;;;10.77;7.80;;;17.50;99.90;;;;;;2039321;29;20499;-68
2022/06/16 03:54:34;;;;;;;11.30;8.18;;;17.50;99.90;;;;;;2039288;29;20749;-68
2022/06/16 03:55:40;;;;;;;8.23;7.20;;;17.60;99.90;;;;;;2040243;29;20059;-68
2022/06/16 03:56:42;;;;;;;8.30;7.50;;;17.60;99.90;;;;;;2039352;29;20032;-69
2022/06/16 03:57:47;;;;;;;8.90;7.40;;;17.60;99.90;;;;;;2031580;29;20040;-69
2022/06/16 03:58:54;;;;;;;9.27;7.88;;;17.70;99.90;;;;;;2031968;29;20100;-69
2022/06/16 03:59:55;;;;;;;8.73;7.32;;;17.70;99.90;;;;;;2032348;29;20040;-69
2022/06/16 04:01:14;;;;;;;8.52;7.47;;;17.70;99.90;;;;;;2042072;28;20055;-68
2022/06/16 04:02:15;;;;;;;9.65;7.30;;;17.70;99.90;;;;;;2039295;29;20510;-69
2022/06/16 04:04:35;;;;;;;8.15;7.35;;;17.70;99.90;;;;;;2042114;29;20032;-69
2022/06/16 04:05:39;;;;;;;9.57;7.80;;;17.70;99.90;;;;;;2039122;29;20024;-68
2022/06/16 04:06:44;;;;;;;9.70;7.75;;;17.80;99.90;;;;;;2039323;29;20158;-69
2022/06/16 04:07:46;;;;;;;8.00;7.30;;;17.70;99.90;;;;;;2038811;29;20036;-69
2022/06/16 04:08:51;;;;;;;7.95;6.97;;;17.70;99.90;;;;;;2038979;29;20044;-68
2022/06/16 04:09:52;;;;;;;12.55;7.93;;;17.70;99.90;;;;;;2031419;29;20032;-68
2022/06/16 04:10:53;;;;;;;8.15;7.35;;;17.70;99.90;;;;;;2039420;29;20051;-68
2022/06/16 04:11:54;;;;;;;7.80;7.00;;;17.70;99.90;;;;;;2039382;29;20063;-69
2022/06/16 04:12:54;;;;;;;8.13;7.30;;;17.70;99.90;;;;;;2039106;29;20024;-68
2022/06/16 04:14:07;;;;;;;8.07;6.97;;;17.60;99.90;;;;;;2032033;29;20115;-67
2022/06/16 04:15:08;;;;;;;7.20;6.60;;;17.70;99.90;;;;;;2039276;29;20090;-68
2022/06/16 04:16:09;;;;;;;7.75;7.00;;;17.70;99.90;;;;;;2039507;29;20031;-68
2022/06/16 04:17:10;;;;;;;7.18;6.50;;;17.70;99.90;;;;;;2039139;29;20079;-68
2022/06/16 04:18:21;;;;;;;8.27;7.27;;;17.70;99.90;;;;;;2039204;29;20038;-68
2022/06/16 04:19:22;;;;;;;8.32;7.47;;;17.60;99.90;;;;;;2039219;29;20267;-67
2022/06/16 04:20:24;;;;;;;7.65;6.80;;;17.70;99.90;;;;;;2039220;29;20145;-67
2022/06/16 04:21:31;;;;;;;7.88;6.82;;;17.80;99.90;;;;;;2032418;29;20020;-66
2022/06/16 04:22:50;;;;;;;7.60;6.80;;;18.00;99.90;;;;;;2039316;29;20031;-67
2022/06/16 04:23:53;;;;;;;7.60;6.80;;;18.10;99.90;;;;;;2040081;29;20483;-67
2022/06/16 04:24:54;;;;;;;8.00;7.20;;;18.20;99.90;;;;;;2039417;29;20119;-67
2022/06/16 04:25:55;;;;;;;7.88;6.90;;;18.30;99.90;;;;;;2031526;29;20123;-67
2022/06/16 04:26:59;;;;;;;7.95;7.10;;;18.40;99.90;;;;;;2039251;29;20150;-69
2022/06/16 04:28:02;;;;;;;7.50;6.55;;;18.70;99.90;;;;;;2039408;29;20701;-68
2022/06/16 04:29:08;;;;;;;8.05;6.90;;;18.90;99.90;;;;;;2031271;29;20024;-68
2022/06/16 04:30:10;;;;;;;8.35;6.53;;;19.10;99.90;;;;;;2032213;29;20036;-68
2022/06/16 04:31:11;;;;;;;7.85;6.70;;;19.40;99.90;;;;;;2039306;29;20024;-68
2022/06/16 04:32:12;;;;;;;8.50;6.50;;;19.60;99.90;;;;;;2031560;29;20063;-68
2022/06/16 04:33:18;;;;;;;6.75;6.10;;;19.80;99.90;;;;;;2032058;29;20043;-67
2022/06/16 04:34:19;;;;;;;8.40;6.50;;;20.00;99.90;;;;;;2031357;29;20032;-67
2022/06/16 04:35:21;;;;;;;9.85;6.50;;;20.00;99.90;;;;;;2031584;29;20128;-68
2022/06/16 04:36:34;;;;;;;11.77;6.38;;;20.10;99.90;;;;;;2039153;29;20138;-67
2022/06/16 04:37:43;;;;;;;11.55;6.53;;;20.20;99.90;;;;;;2032338;29;20139;-68
2022/06/16 04:38:48;;;;;;;9.73;6.72;;;20.20;99.90;;;;;;2038856;29;20090;-67
2022/06/16 04:39:49;;;;;;;8.32;6.38;;;20.10;99.90;;;;;;2039504;29;20513;-68
2022/06/16 04:40:50;;;;;;;6.75;6.03;;;20.10;99.90;;;;;;2038985;29;20138;-67
2022/06/16 04:41:51;;;;;;;7.07;6.38;;;20.10;99.70;;;;;;2031252;29;20127;-68
2022/06/16 04:42:53;;;;;;;7.70;6.43;;;20.10;99.70;;;;;;2031525;29;20111;-67
2022/06/16 04:43:55;;;;;;;11.82;7.15;;;20.00;99.90;;;;;;2031224;29;20622;-68
2022/06/16 04:44:55;;;;;;;8.57;7.03;;;19.90;99.90;;;;;;2039102;29;20036;-68
2022/06/16 04:45:58;;;;;;;7.45;6.60;;;19.90;99.90;;;;;;2039112;29;20126;-68
2022/06/16 04:47:09;;;;;;;8.65;6.30;;;20.00;99.90;;;;;;2039215;29;20834;-68
2022/06/16 04:48:11;;;;;;;6.90;6.07;;;20.10;99.90;;;;;;2031215;29;20028;-68
2022/06/16 04:49:15;;;;;;;7.22;6.43;;;20.40;99.90;;;;;;2039033;29;20115;-68
2022/06/16 04:50:19;;;;;;;9.75;6.10;;;20.60;99.20;;;;;;2038703;29;20043;-68
2022/06/16 04:51:24;;;;;;;6.45;5.80;;;20.70;98.70;;;;;;2031600;29;20063;-68
2022/06/16 04:52:28;;;;;;;6.75;6.00;;;20.80;98.10;;;;;;2039648;29;20470;-67
2022/06/16 04:53:32;;;;;;;9.23;6.90;;;20.90;97.80;;;;;;2039017;29;20424;-68
2022/06/16 04:54:44;;;;;;;7.05;6.35;;;20.80;97.40;;;;;;2039140;29;20039;-68
2022/06/16 04:56:17;;;;;;;8.57;6.25;;;20.70;97.50;;;;;;2027960;29;20994;-69
2022/06/16 04:57:27;;;;;;;11.30;7.43;;;20.50;97.60;;;;;;2039069;29;20428;-67
2022/06/16 04:58:54;;;;;;;9.82;8.02;;;20.30;98.10;;;;;;2005636;29;20037;-68
2022/06/16 05:00:15;;;;;;;9.38;7.00;;;19.90;98.70;;;;;;2047540;29;20074;-68
2022/06/16 05:01:48;;;;;;;8.50;7.13;;;19.80;99.30;;;;;;2038539;29;20039;-69
2022/06/16 05:03:02;;;;;;;11.43;7.80;;;19.60;99.60;;;;;;2046377;28;20509;-68
2022/06/16 05:04:21;;;;;;;11.50;7.70;;;19.50;99.90;;;;;;2047618;29;20402;-68
2022/06/16 05:05:46;;;;;;;9.65;7.13;;;19.40;99.90;;;;;;2022793;29;20699;-68
2022/06/16 05:06:56;;;;;;;8.98;6.95;;;19.30;99.90;;;;;;2035676;29;20039;-68
2022/06/16 05:08:17;;;;;;;9.73;7.00;;;19.30;99.90;;;;;;2041706;29;20749;-68
2022/06/16 05:09:36;;;;;;;7.82;7.03;;;19.40;99.90;;;;;;2047463;28;20126;-68
2022/06/16 05:10:56;;;;;;;7.93;6.68;;;19.60;99.90;;;;;;2038691;29;20471;-68
2022/06/16 05:12:12;;;;;;;7.55;6.57;;;19.80;99.90;;;;;;2032835;29;20526;-73
2022/06/16 05:13:41;;;;;;;7.35;6.53;;;20.00;99.90;;;;;;2034361;29;20031;-68
2022/06/16 05:15:02;;;;;;;7.28;6.22;;;20.30;99.40;;;;;;2038715;29;20032;-69
2022/06/16 05:16:21;;;;;;;8.85;6.50;;;20.40;98.60;;;;;;2038802;29;20589;-68
2022/06/16 05:17:45;;;;;;;6.90;6.20;;;20.50;98.20;;;;;;2034288;29;20756;-69
2022/06/16 05:19:05;;;;;;;6.88;6.28;;;20.70;97.70;;;;;;2038491;29;20031;-69
2022/06/16 05:20:35;;;;;;;6.20;5.60;;;21.00;97.10;;;;;;2038868;29;20039;-69
2022/06/16 05:22:09;;;;;;;6.38;5.68;;;21.30;96.20;;;;;;2035242;29;20086;-70
2022/06/16 05:23:33;;;;;;;10.55;6.50;;;21.60;95.10;;;;;;2033917;29;20071;-70
2022/06/16 05:24:46;;;;;;;11.25;6.88;;;21.50;93.80;;;;;;2032551;29;20035;-69
2022/06/16 05:26:10;;;;;;;7.55;6.13;;;21.40;93.80;;;;;;2033918;29;20024;-67
2022/06/16 05:27:23;;;;;;;10.23;7.13;;;21.20;94.00;;;;;;2032776;29;20107;-67
2022/06/16 05:28:55;;;;;;;9.27;7.03;;;21.20;94.20;;;;;;2034601;29;20047;-68
2022/06/16 05:30:05;;;;;;;9.55;6.25;;;21.00;94.50;;;;;;2039625;28;20138;-68
2022/06/16 05:31:15;;;;;;;9.75;6.25;;;20.90;94.70;;;;;;2034433;29;20451;-68
2022/06/16 05:32:31;;;;;;;6.60;5.88;;;20.70;95.00;;;;;;2036086;29;20134;-67
2022/06/16 05:33:46;;;;;;;9.95;6.75;;;20.60;95.50;;;;;;2038598;29;20040;-67
2022/06/16 05:35:03;;;;;;;6.97;6.05;;;20.50;95.70;;;;;;2032860;29;20189;-68
2022/06/16 05:36:12;;;;;;;6.55;5.82;;;20.50;95.80;;;;;;2032163;29;20035;-67
2022/06/16 05:37:32;;;;;;;6.30;5.70;;;20.40;95.90;;;;;;2041519;29;20507;-68
2022/06/16 05:38:54;;;;;;;7.88;6.22;;;20.40;95.80;;;;;;2047155;29;20043;-68
2022/06/16 05:40:27;;;;;;;6.80;5.82;;;20.50;95.70;;;;;;2032754;29;20055;-68
2022/06/16 05:41:48;;;;;;;7.00;5.82;;;20.90;95.30;;;;;;2045746;28;20450;-67
2022/06/16 05:43:10;;;;;;;6.28;5.50;;;21.40;94.40;;;;;;2038620;29;20042;-68
2022/06/16 05:44:23;;;;;;;7.07;5.68;;;21.80;93.30;;;;;;2038458;29;20030;-68
2022/06/16 05:45:42;;;;;;;7.30;5.80;;;22.00;92.80;;;;;;2041420;29;20036;-67
2022/06/16 05:46:52;;;;;;;8.95;5.85;;;22.00;92.30;;;;;;2049898;28;20126;-68
2022/06/16 05:47:57;;;;;;;8.77;5.78;;;22.00;92.50;;;;;;2038617;29;20040;-68
2022/06/16 05:49:00;;;;;;;7.15;5.65;;;22.00;92.10;;;;;;2038368;29;20031;-68
2022/06/16 05:50:01;;;;;;;8.90;5.47;;;22.00;92.10;;;;;;2038478;29;20031;-67
2022/06/16 05:51:05;;;;;;;8.80;5.75;;;21.90;92.00;;;;;;2030877;29;20137;-68
2022/06/16 05:52:10;;;;;;;7.25;6.20;;;21.80;92.10;;;;;;2031303;29;20074;-69
2022/06/16 05:53:12;;;;;;;6.40;5.80;;;21.80;92.30;;;;;;2031260;29;20039;-69
2022/06/16 05:54:17;;;;;;;8.98;6.05;;;21.60;92.40;;;;;;2038505;29;20035;-69
2022/06/16 05:55:20;;;;;;;8.93;6.13;;;21.60;92.60;;;;;;2030953;29;20534;-68
2022/06/16 05:56:21;;;;;;;6.88;5.95;;;21.50;92.70;;;;;;2030698;29;20152;-67
2022/06/16 05:57:22;;;;;;;8.88;5.82;;;21.40;92.80;;;;;;2030743;29;20024;-72
2022/06/16 05:58:23;;;;;;;8.68;6.07;;;21.30;93.00;;;;;;2038443;29;20031;-67
2022/06/16 05:59:25;;;;;;;6.63;5.75;;;21.30;93.00;;;;;;2038494;29;20020;-69
2022/06/16 06:00:26;;;;;;;9.32;5.88;;;21.20;93.10;;;;;;2038504;29;20023;-68
2022/06/16 06:01:29;;;;;;;6.55;5.60;;;21.30;93.20;;;;;;2044028;28;20030;-68
2022/06/16 06:02:42;;;;;;;7.30;5.70;;;21.30;93.20;;;;;;2055205;28;20030;-68
2022/06/16 06:03:44;;;;;;;5.70;5.10;;;21.30;93.10;;;;;;2046269;29;20476;-71
2022/06/16 06:04:48;;;;;;;8.65;5.50;;;21.40;92.90;;;;;;2046368;29;20800;-67
2022/06/16 06:05:49;;;;;;;6.63;5.47;;;21.50;92.80;;;;;;2046600;28;20027;-68